Time;durP1;ratioP1;P1;durP2;ratioP2;P2;SDS_P1;SDS_P2;PMS_P1;PMS_P2;Temp;Humidity;BMP_temperature;BMP_pressure;BME280_temperature;BME280_humidity;BME280_pressure;Samples;Min_cycle;Max_cycle;Signal;HPM_P1;HPM_P2
2022/03/10 00:00:10;;;;;;;4.80;2.38;;;;;;;-8.41;41.08;101140.09;5029263;28;20056;-40
2022/03/10 00:02:39;;;;;;;5.80;2.50;;;;;;;-8.42;41.50;101145.91;5028383;28;20049;-40
2022/03/10 00:05:09;;;;;;;5.55;2.75;;;;;;;-8.44;40.99;101150.00;5028259;28;20529;-40
2022/03/10 00:07:35;;;;;;;5.53;2.42;;;;;;;-8.44;41.12;101145.84;5019591;28;20029;-41
2022/03/10 00:10:03;;;;;;;4.40;1.80;;;;;;;-8.49;41.30;101143.78;5028130;28;20183;-43
2022/03/10 00:12:29;;;;;;;8.25;2.42;;;;;;;-8.53;41.64;101147.78;5025219;28;20042;-41
2022/03/10 00:14:54;;;;;;;9.23;3.35;;;;;;;-8.66;41.42;101132.63;5011468;28;20544;-41
2022/03/10 00:17:20;;;;;;;6.82;3.13;;;;;;;-8.59;41.54;101147.38;5019486;28;20424;-41
2022/03/10 00:19:46;;;;;;;12.98;3.63;;;;;;;-8.62;40.75;101149.69;5030820;28;20063;-41
2022/03/10 00:22:12;;;;;;;30.15;8.07;;;;;;;-8.65;41.06;101152.00;5031205;28;20037;-41
2022/03/10 00:24:39;;;;;;;27.48;7.72;;;;;;;-8.67;41.42;101148.50;5022750;28;20041;-41
2022/03/10 00:27:05;;;;;;;35.75;9.93;;;;;;;-8.69;41.77;101155.13;5035240;28;20519;-42
2022/03/10 00:29:31;;;;;;;35.42;9.27;;;;;;;-8.67;42.12;101158.59;5031422;28;20079;-41
2022/03/10 00:31:57;;;;;;;21.08;6.35;;;;;;;-8.69;41.40;101171.06;5016535;28;20045;-40
2022/03/10 00:34:23;;;;;;;18.00;6.07;;;;;;;-8.69;41.22;101168.56;5013644;28;20169;-41
2022/03/10 00:36:48;;;;;;;13.98;5.22;;;;;;;-8.69;41.28;101155.13;5018512;28;20128;-41
2022/03/10 00:39:14;;;;;;;12.55;4.43;;;;;;;-8.68;42.06;101157.72;5031417;28;20038;-41
2022/03/10 00:41:40;;;;;;;9.98;4.05;;;;;;;-8.81;41.61;101140.06;5020126;28;20604;-41
2022/03/10 00:44:05;;;;;;;8.25;3.80;;;;;;;-8.69;41.71;101167.72;5032637;28;20033;-41
2022/03/10 00:46:31;;;;;;;7.88;3.00;;;;;;;-8.70;41.05;101166.84;5028091;28;20037;-41
2022/03/10 00:48:57;;;;;;;7.78;3.03;;;;;;;-8.74;41.54;101157.31;5032068;28;20041;-41
2022/03/10 00:51:23;;;;;;;6.40;2.50;;;;;;;-8.74;40.89;101169.91;5028601;28;20037;-41
2022/03/10 00:53:48;;;;;;;5.75;1.92;;;;;;;-8.75;41.54;101175.75;5033356;28;20064;-40
2022/03/10 00:56:14;;;;;;;5.07;2.42;;;;;;;-8.77;41.04;101179.78;5032905;28;20096;-41
2022/03/10 00:58:40;;;;;;;5.15;2.20;;;;;;;-8.77;40.94;101176.41;5025382;28;20072;-40
2022/03/10 01:01:06;;;;;;;8.13;3.03;;;;;;;-8.76;40.73;101183.19;5021518;28;20513;-41
2022/03/10 01:03:32;;;;;;;6.20;2.42;;;;;;;-8.77;41.04;101191.53;5032837;28;20043;-40
2022/03/10 01:05:58;;;;;;;6.72;2.67;;;;;;;-8.79;40.84;101188.88;5031997;28;20077;-40
2022/03/10 01:08:23;;;;;;;6.93;2.40;;;;;;;-8.90;41.56;101176.38;5032603;28;20041;-41
2022/03/10 01:10:49;;;;;;;5.15;2.50;;;;;;;-8.94;41.64;101182.84;5037859;28;20172;-41
2022/03/10 01:13:17;;;;;;;8.23;2.58;;;;;;;-8.84;41.69;101204.47;5032257;28;20044;-41
2022/03/10 01:15:45;;;;;;;5.20;2.10;;;;;;;-8.88;42.09;101194.97;5032594;28;20144;-40
2022/03/10 01:18:11;;;;;;;7.13;2.35;;;;;;;-8.90;42.08;101199.94;5031432;28;20038;-41
2022/03/10 01:20:37;;;;;;;6.05;2.33;;;;;;;-8.92;41.67;101196.41;5031486;28;20135;-41
2022/03/10 01:23:02;;;;;;;6.05;2.45;;;;;;;-9.05;42.07;101171.16;5030846;28;20053;-41
2022/03/10 01:25:28;;;;;;;8.73;2.35;;;;;;;-9.08;41.93;101168.44;5032239;28;20051;-41
2022/03/10 01:27:54;;;;;;;7.10;3.00;;;;;;;-9.15;42.12;101151.16;5030620;28;20517;-41
2022/03/10 01:30:19;;;;;;;7.22;2.83;;;;;;;-8.95;41.26;101183.63;5033504;28;20497;-41
2022/03/10 01:32:45;;;;;;;6.13;2.42;;;;;;;-8.95;42.15;101191.19;5014635;28;20041;-40
2022/03/10 01:35:12;;;;;;;6.10;2.28;;;;;;;-8.95;41.39;101197.88;5031199;28;20049;-41
2022/03/10 01:37:39;;;;;;;7.28;2.15;;;;;;;-8.97;41.08;101202.78;5031917;28;20041;-41
2022/03/10 01:40:06;;;;;;;5.00;2.80;;;;;;;-9.01;41.80;101206.75;5031802;28;20045;-41
2022/03/10 01:42:32;;;;;;;7.10;2.70;;;;;;;-9.01;41.81;101209.28;5029839;28;20509;-39
2022/03/10 01:44:57;;;;;;;6.93;2.50;;;;;;;-9.02;42.19;101210.03;5031476;28;20037;-40
2022/03/10 01:47:23;;;;;;;5.50;2.20;;;;;;;-9.03;42.23;101205.78;5032395;28;20042;-40
2022/03/10 01:49:49;;;;;;;6.32;2.50;;;;;;;-9.03;42.54;101202.38;5031596;28;20041;-40
2022/03/10 01:52:15;;;;;;;5.18;2.40;;;;;;;-9.11;42.52;101190.94;5029813;28;20097;-41
2022/03/10 01:54:41;;;;;;;2.67;1.75;;;;;;;-9.02;41.63;101216.72;5031474;28;20053;-41
2022/03/10 01:57:10;;;;;;;7.95;2.38;;;;;;;-8.99;42.55;101224.47;5046586;28;20045;-42
2022/03/10 01:59:39;;;;;;;3.70;1.90;;;;;;;-8.97;42.46;101222.94;5030450;28;20106;-40
2022/03/10 02:02:05;;;;;;;4.45;2.33;;;;;;;-8.95;42.24;101228.09;5030142;28;20045;-41
2022/03/10 02:04:32;;;;;;;6.53;2.67;;;;;;;-8.96;42.08;101229.75;5030109;28;20361;-41
2022/03/10 02:06:57;;;;;;;8.93;2.33;;;;;;;-8.96;42.22;101222.19;5031604;28;20040;-41
2022/03/10 02:12:07;;;;;;;6.32;2.20;;;;;;;-8.97;41.79;101224.59;5031326;28;20091;-40
2022/03/10 02:17:28;;;;;;;3.78;1.83;;;;;;;-9.02;41.46;101226.81;5011902;28;20053;-41
2022/03/10 02:19:57;;;;;;;5.00;2.67;;;;;;;-9.03;42.05;101233.47;5030687;28;20063;-40
2022/03/10 02:22:23;;;;;;;5.60;1.80;;;;;;;-9.04;42.31;101238.41;5030255;28;20671;-40
2022/03/10 02:24:50;;;;;;;3.72;1.77;;;;;;;-9.05;41.24;101240.06;5030923;28;20048;-40
2022/03/10 02:27:20;;;;;;;4.75;1.85;;;;;;;-9.10;41.33;101240.50;5029898;28;20252;-40
2022/03/10 02:29:51;;;;;;;9.95;1.90;;;;;;;-9.14;41.15;101241.06;5030617;28;20061;-41
2022/03/10 02:32:17;;;;;;;4.45;2.10;;;;;;;-9.19;41.96;101244.91;5030984;28;20091;-40
2022/03/10 02:34:43;;;;;;;6.95;1.85;;;;;;;-9.21;42.05;101242.28;5030637;28;20094;-41
2022/03/10 02:37:10;;;;;;;5.25;1.67;;;;;;;-9.30;41.54;101226.56;5029826;28;20049;-42
2022/03/10 02:39:35;;;;;;;4.28;2.25;;;;;;;-9.19;41.17;101249.97;5030430;28;20072;-42
2022/03/10 02:42:02;;;;;;;5.07;1.48;;;;;;;-9.22;42.04;101258.19;5030552;28;20049;-40
2022/03/10 02:44:28;;;;;;;5.28;2.30;;;;;;;-9.23;40.99;101258.06;5016399;28;20497;-41
2022/03/10 02:46:54;;;;;;;5.70;2.10;;;;;;;-9.26;41.33;101258.72;5031044;28;20060;-41
2022/03/10 02:49:20;;;;;;;4.82;1.80;;;;;;;-9.26;41.92;101265.44;5030020;28;20045;-41
2022/03/10 02:51:45;;;;;;;8.05;2.58;;;;;;;-9.36;41.47;101251.31;5030983;28;20045;-41
2022/03/10 02:54:11;;;;;;;4.95;2.33;;;;;;;-9.27;41.07;101257.00;5030838;28;20136;-41
2022/03/10 02:56:37;;;;;;;7.75;2.22;;;;;;;-9.42;41.31;101241.69;5030343;28;20058;-40
2022/03/10 02:59:03;;;;;;;5.88;2.70;;;;;;;-9.34;42.03;101264.00;5030024;28;20052;-40
2022/03/10 03:01:29;;;;;;;5.45;2.13;;;;;;;-9.34;42.17;101267.41;5030869;28;20049;-40
2022/03/10 03:03:55;;;;;;;6.85;2.55;;;;;;;-9.46;41.49;101249.78;5030929;28;20132;-40
2022/03/10 03:06:21;;;;;;;13.13;2.60;;;;;;;-9.39;41.16;101265.34;5028272;28;20037;-41
2022/03/10 03:08:46;;;;;;;4.75;2.00;;;;;;;-9.34;42.13;101276.59;5025491;28;20068;-41
2022/03/10 03:11:12;;;;;;;3.22;1.60;;;;;;;-9.33;40.98;101285.91;5018303;28;20040;-41
2022/03/10 03:13:38;;;;;;;9.70;2.03;;;;;;;-9.42;41.65;101268.53;5029869;28;20056;-40
2022/03/10 03:16:04;;;;;;;5.38;1.80;;;;;;;-9.37;41.79;101284.81;5028922;28;20433;-40
2022/03/10 03:18:30;;;;;;;4.38;2.40;;;;;;;-9.38;41.21;101287.22;5030085;28;20071;-40
2022/03/10 03:20:55;;;;;;;6.22;1.77;;;;;;;-9.40;42.01;101294.66;5030661;28;20148;-40
2022/03/10 03:23:23;;;;;;;6.57;1.80;;;;;;;-9.43;41.27;101284.38;5030170;28;20045;-41
2022/03/10 03:25:50;;;;;;;7.55;2.22;;;;;;;-9.57;41.77;101272.44;5030393;28;20073;-42
2022/03/10 03:28:16;;;;;;;4.35;1.67;;;;;;;-9.49;41.91;101284.84;5029686;28;20037;-41
2022/03/10 03:30:42;;;;;;;4.45;1.92;;;;;;;-9.50;41.26;101298.19;5030151;28;20140;-40
2022/03/10 03:33:08;;;;;;;2.85;1.52;;;;;;;-9.51;41.37;101300.56;5029864;28;20064;-41
2022/03/10 03:35:34;;;;;;;3.67;1.98;;;;;;;-9.52;41.15;101296.31;5030382;28;20084;-41
2022/03/10 03:38:00;;;;;;;3.13;1.50;;;;;;;-9.54;41.96;101301.25;5030317;28;20406;-42
2022/03/10 03:40:26;;;;;;;6.70;2.33;;;;;;;-9.54;42.21;101305.41;5030253;28;20088;-41
2022/03/10 03:42:52;;;;;;;3.70;2.20;;;;;;;-9.54;41.07;101307.94;5030200;28;20425;-40
2022/03/10 03:45:18;;;;;;;4.20;1.83;;;;;;;-9.58;41.16;101306.84;5029936;28;20045;-40
2022/03/10 03:47:43;;;;;;;6.47;2.25;;;;;;;-9.60;41.26;101307.47;5028497;28;20041;-41
2022/03/10 03:50:10;;;;;;;7.45;1.83;;;;;;;-9.68;41.36;101294.34;5029684;28;20056;-41
2022/03/10 03:52:36;;;;;;;7.45;2.03;;;;;;;-9.55;41.36;101318.75;5029783;28;20127;-41
2022/03/10 03:55:02;;;;;;;5.57;2.10;;;;;;;-9.70;42.12;101292.50;5031394;28;20131;-41
2022/03/10 03:57:28;;;;;;;6.60;2.28;;;;;;;-9.54;42.54;101315.47;5033963;28;20061;-39
2022/03/10 03:59:53;;;;;;;5.90;2.30;;;;;;;-9.51;41.69;101313.16;5033769;28;20110;-41
2022/03/10 04:02:19;;;;;;;7.53;1.90;;;;;;;-9.52;41.32;101322.34;5031569;28;20041;-44
2022/03/10 04:04:45;;;;;;;8.32;2.22;;;;;;;-9.52;42.37;101331.53;5033833;28;20072;-42
2022/03/10 04:07:11;;;;;;;4.63;2.08;;;;;;;-9.58;42.07;101316.03;5032222;28;20037;-41
2022/03/10 04:09:37;;;;;;;8.60;2.13;;;;;;;-9.51;42.18;101338.34;5033390;28;20049;-41
2022/03/10 04:12:03;;;;;;;4.15;2.05;;;;;;;-9.65;41.53;101319.75;5033562;28;20060;-42
2022/03/10 04:14:29;;;;;;;4.82;2.35;;;;;;;-9.66;41.52;101312.06;5033066;28;20534;-41
2022/03/10 04:16:55;;;;;;;5.55;1.83;;;;;;;-9.52;42.13;101341.63;5033338;28;20041;-40
2022/03/10 04:19:20;;;;;;;7.00;2.85;;;;;;;-9.53;42.03;101342.41;5031762;28;20515;-41
2022/03/10 04:21:46;;;;;;;6.65;2.22;;;;;;;-9.52;41.51;101350.03;5032121;28;20048;-46
2022/03/10 04:24:12;;;;;;;4.57;1.85;;;;;;;-9.63;41.61;101323.22;5031576;28;20037;-42
2022/03/10 04:26:39;;;;;;;6.10;2.90;;;;;;;-9.47;42.35;101342.81;5031972;28;20042;-42
2022/03/10 04:29:04;;;;;;;6.13;2.58;;;;;;;-9.45;41.15;101352.25;5033065;28;20091;-41
2022/03/10 04:31:30;;;;;;;6.78;2.80;;;;;;;-9.41;41.86;101353.31;5033191;28;20095;-43
2022/03/10 04:33:56;;;;;;;19.67;3.40;;;;;;;-9.38;42.31;101355.22;5031256;28;20398;-42
2022/03/10 04:36:22;;;;;;;5.72;2.67;;;;;;;-9.36;42.24;101351.13;5032066;28;20079;-42
2022/03/10 04:38:47;;;;;;;7.05;2.65;;;;;;;-9.33;42.09;101359.81;5032306;28;20577;-40
2022/03/10 04:41:13;;;;;;;6.53;2.30;;;;;;;-9.30;41.55;101354.97;5033233;28;20133;-42
2022/03/10 04:43:39;;;;;;;24.13;3.63;;;;;;;-9.39;41.84;101340.84;5032259;28;20508;-41
2022/03/10 04:46:05;;;;;;;5.22;2.58;;;;;;;-9.27;41.85;101365.28;5033094;28;20045;-42
2022/03/10 04:48:31;;;;;;;9.18;2.45;;;;;;;-9.27;41.31;101362.75;5032470;28;20037;-41
2022/03/10 04:50:57;;;;;;;7.05;2.22;;;;;;;-9.27;41.72;101360.25;5033198;28;20099;-41
2022/03/10 04:53:23;;;;;;;6.50;2.65;;;;;;;-9.24;41.21;101368.00;5031983;28;20051;-41
2022/03/10 04:55:48;;;;;;;2.90;1.80;;;;;;;-9.20;42.28;101366.56;5031348;28;20129;-41
2022/03/10 04:58:14;;;;;;;7.13;2.80;;;;;;;-9.12;42.00;101361.31;5031777;28;20081;-42
2022/03/10 05:00:40;;;;;;;4.65;2.15;;;;;;;-9.22;41.87;101342.94;5032290;28;20042;-41
2022/03/10 05:03:06;;;;;;;5.53;2.00;;;;;;;-9.02;40.96;101368.75;5030123;28;20045;-41
2022/03/10 05:05:31;;;;;;;6.90;2.30;;;;;;;-9.10;41.47;101351.34;5030717;28;20104;-42
2022/03/10 05:07:57;;;;;;;5.93;2.60;;;;;;;-8.93;41.14;101376.06;5030429;28;20034;-41
2022/03/10 05:10:23;;;;;;;6.20;2.50;;;;;;;-8.91;41.65;101387.16;5031429;28;20045;-42
2022/03/10 05:12:52;;;;;;;7.47;2.38;;;;;;;-8.81;41.33;101396.22;5028651;28;20131;-41
2022/03/10 05:15:23;;;;;;;9.93;2.47;;;;;;;-8.74;41.06;101393.38;5031265;28;20034;-41
2022/03/10 05:17:49;;;;;;;12.73;2.67;;;;;;;-8.69;40.93;101397.09;5031190;28;20037;-43
2022/03/10 05:20:16;;;;;;;8.55;2.50;;;;;;;-8.60;40.94;101401.13;5013397;28;20029;-42
2022/03/10 05:22:42;;;;;;;10.02;3.42;;;;;;;-8.50;41.11;101405.13;5030785;28;20052;-42
2022/03/10 05:25:08;;;;;;;8.40;2.25;;;;;;;-8.41;40.36;101403.25;5030261;28;20127;-41
2022/03/10 05:27:34;;;;;;;5.30;2.30;;;;;;;-8.30;40.07;101411.53;5012430;28;20121;-42
2022/03/10 05:30:00;;;;;;;6.95;2.00;;;;;;;-8.17;40.58;101409.06;5031158;28;20517;-43
2022/03/10 05:32:25;;;;;;;5.90;2.13;;;;;;;-8.18;40.15;101384.59;5030892;28;20041;-42
2022/03/10 05:34:51;;;;;;;5.75;2.35;;;;;;;-7.95;39.78;101411.34;5030850;28;20034;-40
2022/03/10 05:37:17;;;;;;;4.72;1.98;;;;;;;-7.85;39.44;101409.53;5031384;28;20044;-41
2022/03/10 05:39:43;;;;;;;5.35;1.95;;;;;;;-7.67;38.95;101411.53;5030778;28;20084;-41
2022/03/10 05:42:09;;;;;;;4.55;2.08;;;;;;;-7.50;39.12;101409.34;5031389;28;20097;-40
2022/03/10 05:44:35;;;;;;;8.02;2.30;;;;;;;-7.34;38.88;101413.75;5030397;28;20033;-41
2022/03/10 05:47:00;;;;;;;9.10;2.38;;;;;;;-7.08;38.43;101418.81;5013162;28;20040;-41
2022/03/10 05:49:26;;;;;;;7.10;2.50;;;;;;;-6.70;37.76;101421.22;5028557;28;20053;-43
2022/03/10 05:51:52;;;;;;;7.57;2.47;;;;;;;-6.17;37.21;101426.13;5029769;28;20239;-41
2022/03/10 05:54:17;;;;;;;8.75;2.97;;;;;;;-5.28;36.54;101423.78;5030709;28;20033;-44
2022/03/10 05:56:43;;;;;;;5.63;2.40;;;;;;;-4.22;35.06;101423.69;5030753;28;20409;-43
2022/03/10 05:59:09;;;;;;;10.75;2.55;;;;;;;-3.23;33.07;101432.13;5030544;28;20049;-42
2022/03/10 06:01:34;;;;;;;9.60;4.10;;;;;;;-2.40;32.25;101421.63;5031794;28;20036;-43
2022/03/10 06:04:00;;;;;;;16.55;5.53;;;;;;;-1.61;30.79;101420.91;5029216;28;20049;-41
2022/03/10 06:06:26;;;;;;;17.95;8.52;;;;;;;-0.70;29.88;101421.22;5031102;28;20048;-43
2022/03/10 06:08:51;;;;;;;9.65;4.57;;;;;;;0.10;28.53;101431.03;5030749;28;20137;-45
2022/03/10 06:11:17;;;;;;;5.22;2.88;;;;;;;0.90;27.91;101426.09;5030792;28;20053;-44
2022/03/10 06:13:43;;;;;;;13.30;2.90;;;;;;;1.57;26.88;101425.66;5029894;28;20046;-43
2022/03/10 06:16:08;;;;;;;6.75;2.70;;;;;;;2.28;26.00;101427.69;5029210;28;20037;-44
2022/03/10 06:18:34;;;;;;;4.45;2.50;;;;;;;2.97;25.36;101422.63;5028457;28;20044;-43
2022/03/10 06:21:00;;;;;;;4.65;2.45;;;;;;;3.49;24.13;101423.84;5028520;28;20432;-42
2022/03/10 06:23:26;;;;;;;5.28;2.30;;;;;;;4.01;23.69;101423.22;5027336;28;20531;-43
2022/03/10 06:25:51;;;;;;;10.00;2.63;;;;;;;4.50;22.66;101425.03;5026846;28;20091;-42
2022/03/10 06:28:17;;;;;;;7.65;3.38;;;;;;;5.05;22.10;101421.66;5044001;28;20464;-42
2022/03/10 06:30:43;;;;;;;6.25;2.63;;;;;;;5.53;21.54;101422.41;5029309;28;20045;-42
2022/03/10 06:33:09;;;;;;;4.88;2.70;;;;;;;6.07;21.30;101430.88;5029381;28;20041;-42
2022/03/10 06:35:35;;;;;;;6.82;2.97;;;;;;;6.54;20.63;101423.66;5030887;28;20132;-43
2022/03/10 06:38:00;;;;;;;5.63;2.97;;;;;;;7.05;20.28;101428.41;5029313;28;20133;-43
2022/03/10 06:40:38;;;;;;;4.80;2.67;;;;;;;7.54;19.68;101427.00;5030359;28;20043;-44
2022/03/10 06:43:04;;;;;;;13.73;2.45;;;;;;;8.15;18.77;101433.38;5031743;28;20045;-45
2022/03/10 06:45:31;;;;;;;8.00;2.90;;;;;;;8.53;18.58;101424.84;5028470;28;20029;-42
2022/03/10 06:47:58;;;;;;;5.93;2.42;;;;;;;8.93;18.15;101427.50;5029921;28;20037;-43
2022/03/10 06:50:24;;;;;;;6.43;2.70;;;;;;;9.32;18.14;101413.59;5037448;28;20043;-44
2022/03/10 06:52:52;;;;;;;5.78;2.60;;;;;;;9.71;17.37;101414.41;5030405;28;20041;-43
2022/03/10 06:55:19;;;;;;;7.45;3.20;;;;;;;10.10;16.85;101431.59;5029839;28;20080;-43
2022/03/10 06:57:46;;;;;;;7.47;3.47;;;;;;;10.26;16.36;101432.41;5014380;28;20111;-43
2022/03/10 07:00:12;;;;;;;5.85;3.05;;;;;;;10.46;16.27;101435.75;5012936;28;20042;-45
2022/03/10 07:02:39;;;;;;;5.55;2.13;;;;;;;10.70;15.67;101437.31;5029840;28;20052;-43
2022/03/10 07:05:07;;;;;;;7.32;1.95;;;;;;;11.04;16.25;101444.03;5027838;28;20041;-44
2022/03/10 07:07:33;;;;;;;6.95;2.60;;;;;;;11.42;15.22;101443.66;5030540;28;20045;-43
2022/03/10 07:09:58;;;;;;;4.97;2.47;;;;;;;11.80;15.41;101436.34;5013969;28;20579;-42
2022/03/10 07:12:27;;;;;;;4.07;2.28;;;;;;;12.08;15.00;101444.72;5036546;28;20123;-42
2022/03/10 07:14:53;;;;;;;4.93;2.13;;;;;;;12.22;14.49;101421.91;5040164;28;20075;-44
2022/03/10 07:17:19;;;;;;;12.70;2.40;;;;;;;12.25;14.65;101436.66;5029724;28;20073;-43
2022/03/10 07:19:45;;;;;;;4.53;2.15;;;;;;;12.30;14.65;101438.31;5034293;28;20048;-42
2022/03/10 07:22:16;;;;;;;4.72;2.38;;;;;;;12.60;13.93;101430.97;5028826;28;20424;-41
2022/03/10 07:24:41;;;;;;;6.25;2.83;;;;;;;12.76;14.50;101436.81;5027667;28;20509;-42
2022/03/10 07:27:07;;;;;;;8.07;2.58;;;;;;;12.95;13.90;101436.50;5029654;28;20049;-41
2022/03/10 07:29:33;;;;;;;5.18;2.20;;;;;;;13.14;13.82;101439.69;5031642;28;20037;-42
2022/03/10 07:31:59;;;;;;;9.93;2.08;;;;;;;13.61;13.50;101438.84;5033820;28;20118;-43
2022/03/10 07:34:25;;;;;;;6.43;3.00;;;;;;;14.09;13.27;101447.47;5027861;28;20037;-41
2022/03/10 07:36:50;;;;;;;5.00;2.78;;;;;;;14.25;12.99;101440.16;5014496;28;20033;-43
2022/03/10 07:39:16;;;;;;;4.47;2.92;;;;;;;14.56;13.03;101446.50;5030068;28;20045;-47
2022/03/10 07:41:42;;;;;;;6.53;2.70;;;;;;;14.94;12.67;101442.13;5029338;28;20049;-46
2022/03/10 07:44:08;;;;;;;5.78;2.83;;;;;;;15.01;12.48;101439.31;5031340;28;20098;-46
2022/03/10 07:46:34;;;;;;;6.50;2.60;;;;;;;14.84;12.43;101428.38;5030562;28;20508;-49
2022/03/10 07:49:00;;;;;;;4.75;2.65;;;;;;;14.99;12.62;101443.72;5023539;28;20073;-47
2022/03/10 07:51:25;;;;;;;9.02;3.15;;;;;;;15.03;12.54;101420.94;5022220;28;20617;-50
2022/03/10 07:53:51;;;;;;;7.20;2.72;;;;;;;15.28;12.36;101436.00;5027665;28;20512;-49
2022/03/10 07:56:17;;;;;;;6.15;2.67;;;;;;;15.20;12.21;101442.34;5030416;28;20608;-44
2022/03/10 07:58:43;;;;;;;6.20;3.00;;;;;;;15.16;12.36;101432.84;5020443;28;20137;-45
2022/03/10 08:01:09;;;;;;;8.90;3.17;;;;;;;15.07;12.39;101430.47;5032694;28;20044;-44
2022/03/10 08:03:36;;;;;;;4.30;2.58;;;;;;;14.82;12.11;101432.78;5021691;28;20041;-43
2022/03/10 08:06:02;;;;;;;6.32;2.92;;;;;;;14.88;12.03;101411.69;5012577;28;20048;-46
2022/03/10 08:08:28;;;;;;;4.13;2.70;;;;;;;15.19;11.92;101415.28;5020055;28;20483;-45
2022/03/10 08:10:53;;;;;;;7.78;3.42;;;;;;;15.45;11.81;101408.47;5023169;28;20045;-41
2022/03/10 08:13:24;;;;;;;6.20;2.72;;;;;;;15.41;11.83;101412.09;5028341;28;20043;-40
2022/03/10 08:15:50;;;;;;;8.07;2.90;;;;;;;15.04;11.91;101410.44;5020170;28;20072;-43
2022/03/10 08:18:17;;;;;;;5.95;2.72;;;;;;;15.17;11.95;101403.13;5023687;28;20477;-47
2022/03/10 08:20:42;;;;;;;8.13;2.30;;;;;;;15.55;11.96;101402.97;4998357;28;20077;-41
2022/03/10 08:23:09;;;;;;;7.30;2.80;;;;;;;15.48;11.65;101393.56;5026984;28;20064;-45
2022/03/10 08:25:36;;;;;;;8.40;2.60;;;;;;;15.93;11.62;101403.66;5044607;28;20044;-46
2022/03/10 08:28:03;;;;;;;6.47;3.00;;;;;;;15.90;11.46;101403.78;5042323;28;20052;-42
2022/03/10 08:30:29;;;;;;;10.77;6.90;;;;;;;15.88;11.46;101401.19;5031989;28;20041;-44
2022/03/10 08:32:55;;;;;;;4.28;2.50;;;;;;;16.03;11.38;101392.00;5026740;28;20107;-43
2022/03/10 08:35:20;;;;;;;4.95;2.97;;;;;;;16.00;11.55;101392.97;5029418;28;20041;-41
2022/03/10 08:37:46;;;;;;;5.90;2.75;;;;;;;16.04;11.62;101396.34;5032304;28;20034;-40
2022/03/10 08:40:15;;;;;;;9.00;3.00;;;;;;;15.94;11.54;101379.16;5026074;28;20496;-40
2022/03/10 08:42:43;;;;;;;6.03;2.33;;;;;;;15.71;11.48;101392.06;5032012;28;20133;-40
2022/03/10 08:45:18;;;;;;;6.10;2.30;;;;;;;15.86;11.21;101395.09;5025036;28;20060;-43
2022/03/10 08:47:44;;;;;;;7.28;2.72;;;;;;;16.09;11.35;101392.69;5038613;28;20041;-42
2022/03/10 08:50:11;;;;;;;6.68;2.60;;;;;;;16.31;11.43;101387.66;5032138;28;20095;-42
2022/03/10 08:52:38;;;;;;;10.18;3.25;;;;;;;16.38;10.82;101398.84;5031309;28;20038;-45
2022/03/10 08:55:05;;;;;;;7.95;2.70;;;;;;;16.39;11.12;101403.16;5030990;28;20088;-44
2022/03/10 08:57:32;;;;;;;8.32;2.50;;;;;;;16.18;11.29;101382.81;5031217;28;20154;-44
2022/03/10 08:59:58;;;;;;;4.50;3.08;;;;;;;16.41;11.13;101396.97;5030880;28;20045;-45
2022/03/10 09:02:24;;;;;;;4.40;2.53;;;;;;;16.50;11.06;101401.91;5033600;28;20045;-45
2022/03/10 09:04:50;;;;;;;7.47;3.25;;;;;;;16.70;11.05;101389.94;5043699;28;20048;-46
2022/03/10 09:07:16;;;;;;;4.35;2.60;;;;;;;16.99;10.83;101389.88;5027927;28;20038;-47
2022/03/10 09:09:42;;;;;;;7.40;2.72;;;;;;;17.14;10.62;101399.00;5028314;28;20102;-44
2022/03/10 09:12:08;;;;;;;7.05;3.03;;;;;;;17.33;10.47;101403.56;5010103;28;20038;-46
2022/03/10 09:14:34;;;;;;;8.30;3.60;;;;;;;17.57;10.33;101393.97;5026758;28;20049;-44
2022/03/10 09:16:59;;;;;;;12.40;4.28;;;;;;;17.82;10.40;101383.44;5009562;28;20363;-43
2022/03/10 09:19:25;;;;;;;9.77;3.05;;;;;;;17.84;10.12;101391.28;5023332;28;20045;-43
2022/03/10 09:21:51;;;;;;;4.18;2.45;;;;;;;17.62;10.10;101392.06;5026944;28;20047;-42
2022/03/10 09:24:17;;;;;;;6.28;2.20;;;;;;;17.63;10.47;101390.28;5026029;28;20049;-42
2022/03/10 09:26:43;;;;;;;3.28;2.30;;;;;;;17.82;10.33;101369.41;5027962;28;20033;-40
2022/03/10 09:29:09;;;;;;;6.95;2.58;;;;;;;18.43;10.13;101391.59;5023520;28;20087;-41
2022/03/10 09:31:34;;;;;;;3.03;2.40;;;;;;;18.52;9.93;101386.84;5053141;28;20060;-45
2022/03/10 09:34:00;;;;;;;10.90;2.90;;;;;;;18.47;10.03;101383.53;5012336;28;20132;-42
2022/03/10 09:36:26;;;;;;;7.68;2.75;;;;;;;18.85;9.89;101384.63;5023517;28;20065;-44
2022/03/10 09:38:53;;;;;;;6.07;2.40;;;;;;;18.71;9.71;101383.50;5025815;28;20084;-41
2022/03/10 09:41:18;;;;;;;4.03;2.55;;;;;;;18.58;9.82;101360.25;5020628;28;20045;-41
2022/03/10 09:43:46;;;;;;;8.43;3.47;;;;;;;18.89;9.93;101385.38;5025192;28;20045;-41
2022/03/10 09:46:11;;;;;;;3.65;2.30;;;;;;;19.24;9.81;101381.25;4979952;28;20095;-41
2022/03/10 09:48:39;;;;;;;6.55;2.63;;;;;;;19.33;9.81;101378.19;5028805;28;20343;-42
2022/03/10 09:51:05;;;;;;;5.00;2.40;;;;;;;19.33;9.91;101368.50;5029494;28;20061;-43
2022/03/10 09:53:31;;;;;;;5.03;2.38;;;;;;;19.77;9.58;101369.22;5029884;28;20041;-42
2022/03/10 09:55:57;;;;;;;4.88;2.63;;;;;;;19.95;9.46;101366.63;5035548;28;20048;-41
2022/03/10 09:58:23;;;;;;;5.03;3.60;;;;;;;20.08;9.30;101370.44;4998408;28;20107;-41
2022/03/10 10:00:49;;;;;;;5.05;2.90;;;;;;;20.11;9.31;101376.41;5026987;28;20037;-42
2022/03/10 10:03:15;;;;;;;3.45;1.98;;;;;;;20.28;9.25;101362.41;5061771;28;20049;-41
2022/03/10 10:05:41;;;;;;;4.28;2.00;;;;;;;20.43;9.19;101366.13;5023913;28;20075;-43
2022/03/10 10:08:09;;;;;;;3.38;1.88;;;;;;;20.29;9.44;101370.28;5028464;28;20228;-42
2022/03/10 10:10:41;;;;;;;3.38;2.00;;;;;;;20.30;9.22;101369.34;5029276;28;20049;-41
2022/03/10 10:13:08;;;;;;;3.78;2.50;;;;;;;20.57;9.22;101358.38;5029116;28;20688;-43
2022/03/10 10:15:35;;;;;;;5.80;2.90;;;;;;;20.77;8.95;101365.34;5031550;28;20540;-42
2022/03/10 10:18:01;;;;;;;5.30;3.95;;;;;;;20.62;8.78;101357.22;5027368;28;20406;-42
2022/03/10 10:20:47;;;;;;;3.42;2.65;;;;;;;20.40;8.63;101353.94;5023124;28;20045;-42
2022/03/10 10:23:24;;;;;;;5.20;2.83;;;;;;;20.46;8.78;101358.94;5046798;28;20037;-42
2022/03/10 10:26:01;;;;;;;5.07;1.88;;;;;;;20.17;8.82;101352.34;5030142;28;20527;-43
2022/03/10 10:28:32;;;;;;;4.35;3.17;;;;;;;20.19;8.82;101358.44;5029411;28;20034;-43
2022/03/10 10:31:03;;;;;;;3.85;2.20;;;;;;;20.41;8.97;101352.97;5028485;28;20512;-44
2022/03/10 10:33:31;;;;;;;4.05;2.30;;;;;;;20.53;9.10;101365.63;5029767;28;20067;-46
2022/03/10 10:36:24;;;;;;;3.20;1.77;;;;;;;20.73;8.97;101361.16;5029086;28;20045;-40
2022/03/10 10:38:58;;;;;;;4.90;2.83;;;;;;;20.73;8.86;101357.56;5031887;28;20045;-43
2022/03/10 10:41:26;;;;;;;5.15;2.10;;;;;;;20.51;8.87;101349.00;5027038;28;20086;-46
2022/03/10 10:43:53;;;;;;;4.30;2.30;;;;;;;20.49;9.04;101358.78;5029014;28;20085;-42
2022/03/10 10:46:25;;;;;;;4.18;2.22;;;;;;;20.42;8.77;101365.28;5012646;28;20424;-41
2022/03/10 10:48:50;;;;;;;3.20;2.00;;;;;;;20.68;8.78;101364.84;5030199;28;20513;-42
2022/03/10 10:51:29;;;;;;;2.53;1.60;;;;;;;20.70;8.57;101357.72;5029095;28;20128;-43
2022/03/10 10:53:56;;;;;;;3.30;1.85;;;;;;;20.45;8.68;101361.63;5028603;28;20401;-41
2022/03/10 10:56:22;;;;;;;3.78;2.70;;;;;;;20.50;8.86;101362.28;5029926;28;20057;-41
2022/03/10 10:58:48;;;;;;;2.65;1.77;;;;;;;20.31;8.85;101370.22;5036405;28;20048;-42
2022/03/10 11:01:34;;;;;;;3.20;1.80;;;;;;;20.27;8.85;101363.34;5028948;28;20171;-42
2022/03/10 11:04:00;;;;;;;3.35;1.90;;;;;;;20.25;8.96;101362.56;5027515;28;20045;-41
2022/03/10 11:06:26;;;;;;;2.25;1.77;;;;;;;20.34;8.84;101358.66;5029749;28;20026;-42
2022/03/10 11:08:53;;;;;;;4.55;1.88;;;;;;;20.37;8.88;101361.13;5027076;28;20523;-58
2022/03/10 11:11:20;;;;;;;2.90;1.92;;;;;;;20.22;8.83;101360.91;5028179;28;20428;-54
2022/03/10 11:13:49;;;;;;;3.33;1.80;;;;;;;20.03;9.39;101361.88;5030254;28;20536;-54
2022/03/10 11:16:19;;;;;;;3.70;1.90;;;;;;;19.73;9.62;101359.69;5023503;28;20045;-52
2022/03/10 11:18:51;;;;;;;4.03;2.20;;;;;;;19.80;9.31;101340.03;5033901;28;20049;-54
2022/03/10 11:22:04;;;;;;;5.88;2.05;;;;;;;19.51;9.62;101353.69;5022573;28;20072;-51
2022/03/10 11:24:52;;;;;;;5.22;2.65;;;;;;;19.42;9.43;101368.09;4991067;28;20050;-53
2022/03/10 11:27:24;;;;;;;5.57;3.40;;;;;;;19.44;9.55;101360.13;5022409;28;20135;-51
2022/03/10 11:29:51;;;;;;;3.55;1.90;;;;;;;19.43;9.40;101364.53;5027127;28;20125;-52